V79509 / EC-MEZ 7700 Squawk Report (14th of July, 2018)

Time Lat Lon Altitude Heading Speed Vertical Rate
2018-07-14 15:32:53 GMT 46.454620 0.189054 33,000 210 403 0
2018-07-14 15:32:34 GMT 46.483753 0.213911 33,000 210 416 0
2018-07-14 15:32:12 GMT 46.519680 0.244353 33,000 211 407 0
2018-07-14 15:32:01 GMT 46.538479 0.261011 33,000 210 399 0
2018-07-14 15:31:51 GMT 46.554119 0.274578 33,000 210 398 0
2018-07-14 15:31:32 GMT 46.584293 0.300473 33,000 210 422 0
2018-07-14 15:31:20 GMT 46.603779 0.316825 33,000 211 421 0
2018-07-14 15:31:10 GMT 46.620441 0.331531 33,000 210 401 0
2018-07-14 15:30:56 GMT 46.643364 0.350898 33,025 210 389 0
2018-07-14 15:30:44 GMT 46.662159 0.366820 33,000 211 421 0
2018-07-14 15:30:34 GMT 46.678822 0.381580 33,000 210 419 -60
2018-07-14 15:30:23 GMT 46.696384 0.396529 33,000 211 406 0
2018-07-14 15:30:09 GMT 46.719105 0.416408 33,025 211 405 0
2018-07-14 15:29:57 GMT 46.738327 0.433498 33,025 211 427 0
2018-07-14 15:29:46 GMT 46.756969 0.449853 33,025 210 391 0
2018-07-14 15:29:36 GMT 46.773323 0.463965 33,025 210 404 60
2018-07-14 15:29:22 GMT 46.795879 0.483478 33,025 210 405 -60
2018-07-14 15:29:06 GMT 46.821625 0.506069 33,000 210 406 0
2018-07-14 15:28:56 GMT 46.837784 0.520136 33,000 210 402 0
2018-07-14 15:28:33 GMT 46.875221 0.552411 33,000 211 390 -60
2018-07-14 15:28:21 GMT 46.893764 0.568816 33,025 210 424 0
2018-07-14 15:28:11 GMT 46.910091 0.582765 33,025 210 426 0
2018-07-14 15:27:59 GMT 46.929340 0.599583 33,025 212 423 60
2018-07-14 15:27:48 GMT 46.947598 0.616362 33,025 208 421 0
2018-07-14 15:27:37 GMT 46.965805 0.631289 33,000 203 403 0
2018-07-14 15:27:26 GMT 46.984772 0.643614 33,000 200 427 0
2018-07-14 15:27:15 GMT 47.004768 0.654517 33,000 201 409 0
2018-07-14 15:27:05 GMT 47.022457 0.664534 33,000 199 410 0
2018-07-14 15:26:53 GMT 47.044472 0.675988 33,000 200 423 0
2018-07-14 15:26:43 GMT 47.062607 0.685891 33,000 199 419 0
2018-07-14 15:26:33 GMT 47.080849 0.695590 33,000 199 405 0
2018-07-14 15:26:21 GMT 47.101521 0.706037 33,000 200 426 0
2018-07-14 15:26:09 GMT 47.124058 0.717683 33,000 201 419 0
2018-07-14 15:25:58 GMT 47.143898 0.729745 33,000 200 404 0
2018-07-14 15:25:42 GMT 47.171963 0.745105 33,000 200 422 0
2018-07-14 15:25:27 GMT 47.198833 0.759351 33,025 196 390 60
2018-07-14 15:25:15 GMT 47.219635 0.768381 33,000 203 449 0
2018-07-14 15:25:04 GMT 47.240547 0.782054 33,000 200 418 0
2018-07-14 15:24:50 GMT 47.265308 0.793462 33,000 201 426 0
2018-07-14 15:23:35 GMT 47.402107 0.869942 33,000 200 416 0
2018-07-14 15:23:12 GMT 47.444195 0.893899 33,025 201 426 0
2018-07-14 15:22:58 GMT 47.469059 0.906896 33,000 200 421 0
2018-07-14 15:22:38 GMT 47.504997 0.926660 33,000 200 415 0
2018-07-14 15:22:23 GMT 47.532913 0.942593 33,000 200 412 0
2018-07-14 15:22:10 GMT 47.555435 0.954602 33,000 195 420 0
2018-07-14 15:21:57 GMT 47.596684 1.019334 33,025 171 404 60
2018-07-14 15:20:52 GMT 47.701584 1.014555 33,000 171 404 60
2018-07-14 15:20:40 GMT 47.723789 1.009739 33,025 163 449 0
2018-07-14 15:20:29 GMT 47.745155 0.999204 33,000 158 448 0
2018-07-14 15:20:18 GMT 47.766838 0.985192 33,000 144 439 0
2018-07-14 15:20:08 GMT 47.783897 0.967733 33,000 143 447 0
2018-07-14 15:19:56 GMT 47.803944 0.946198 33,025 148 448 0
2018-07-14 15:19:46 GMT 47.819950 0.927356 33,000 148 448 0
2018-07-14 15:19:26 GMT 47.856434 0.896649 33,000 162 436 0
2018-07-14 15:19:16 GMT 47.874367 0.887147 33,000 164 442 0
2018-07-14 15:18:52 GMT 47.920773 0.867318 33,025 164 438 0
2018-07-14 15:18:41 GMT 47.942692 0.858305 33,025 164 437 0
2018-07-14 15:18:10 GMT 48.003098 0.833787 33,000 164 449 0
2018-07-14 15:17:59 GMT 48.024765 0.824904 33,000 164 438 0
2018-07-14 15:17:48 GMT 48.047215 0.815560 33,000 165 429 0
2018-07-14 15:17:33 GMT 48.075634 0.804350 33,000 164 441 0
2018-07-14 15:17:08 GMT 48.123878 0.785626 33,000 165 481 0
2018-07-14 15:16:56 GMT 48.149689 0.775285 33,000 164 425 0
2018-07-14 15:16:37 GMT 48.185623 0.758675 33,000 164 423 0
2018-07-14 15:16:21 GMT 48.217358 0.746095 33,000 165 420 0
2018-07-14 15:16:08 GMT 48.242107 0.735630 33,000 166 424 0
2018-07-14 15:15:57 GMT 48.263157 0.728270 33,000 164 439 0
2018-07-14 15:15:27 GMT 48.321285 0.703347 33,000 164 439 0
2018-07-14 15:15:17 GMT 48.341385 0.695213 33,025 164 443 0
2018-07-14 15:14:59 GMT 48.376842 0.680571 33,025 164 431 60
2018-07-14 15:14:46 GMT 48.401783 0.670363 33,000 165 471 0
2018-07-14 15:14:35 GMT 48.423573 0.661125 33,000 164 462 0
2018-07-14 15:14:24 GMT 48.446053 0.653057 33,000 163 423 0
2018-07-14 15:14:12 GMT 48.468803 0.643082 33,000 163 451 0
2018-07-14 15:14:02 GMT 48.487415 0.634698 33,000 164 464 0
2018-07-14 15:13:48 GMT 48.516434 0.622532 33,000 164 440 0
2018-07-14 15:13:20 GMT 48.570133 0.600995 33,000 164 472 60
2018-07-14 15:13:09 GMT 48.593300 0.591165 33,000 164 440 0
2018-07-14 15:12:54 GMT 48.620884 0.579196 33,000 165 454 0
2018-07-14 15:12:43 GMT 48.642773 0.569691 33,000 164 443 0
2018-07-14 15:12:33 GMT 48.662907 0.562332 33,000 163 435 0
2018-07-14 15:12:23 GMT 48.682598 0.554883 33,000 162 458 0
2018-07-14 15:12:08 GMT 48.712906 0.540246 33,025 165 436 0
2018-07-14 15:11:56 GMT 48.736496 0.531614 33,000 164 441 0
2018-07-14 15:11:43 GMT 48.761517 0.519590 33,000 165 432 0
2018-07-14 15:11:32 GMT 48.782982 0.511597 33,000 164 472 0
2018-07-14 15:11:22 GMT 48.804031 0.502821 33,000 169 441 0
2018-07-14 15:11:12 GMT 48.824120 0.497039 33,000 161 431 -60
2018-07-14 15:11:02 GMT 48.841911 0.486654 33,000 165 441 0
2018-07-14 15:10:52 GMT 48.862087 0.478604 33,000 164 439 0
2018-07-14 15:10:41 GMT 48.884396 0.468510 33,025 165 432 0
2018-07-14 15:10:31 GMT 48.903301 0.461412 33,000 164 439 0
2018-07-14 15:10:11 GMT 48.942505 0.445329 33,000 164 440 0
2018-07-14 15:09:36 GMT 49.011086 0.415987 33,000 164 449 0
2018-07-14 15:09:26 GMT 49.030678 0.407325 33,000 164 446 0
2018-07-14 15:09:16 GMT 49.051250 0.398951 33,000 164 438 0
2018-07-14 15:09:05 GMT 49.072063 0.390226 33,000 165 435 0
2018-07-14 15:08:48 GMT 49.106033 0.375737 33,000 164 517 0
2018-07-14 15:08:38 GMT 49.124603 0.368765 33,000 162 449 0
2018-07-14 15:08:21 GMT 49.158264 0.352358 33,000 165 441 0
2018-07-14 15:08:10 GMT 49.180080 0.344310 33,025 163 436 0
2018-07-14 15:07:58 GMT 49.203365 0.334032 33,025 164 450 0
2018-07-14 15:07:36 GMT 49.247536 0.315053 33,025 164 447 60
2018-07-14 15:07:25 GMT 49.269035 0.306259 33,025 165 459 60
2018-07-14 15:07:14 GMT 49.290314 0.296770 33,000 164 446 0
2018-07-14 15:07:03 GMT 49.313515 0.287079 33,000 164 436 0
2018-07-14 15:06:51 GMT 49.335678 0.276674 33,000 165 439 240
2018-07-14 15:06:38 GMT 49.362537 0.266488 33,000 163 433 300
2018-07-14 15:06:26 GMT 49.386345 0.255738 33,025 164 447 0
2018-07-14 15:06:10 GMT 49.416477 0.243050 32,975 163 473 1140
2018-07-14 15:06:00 GMT 49.436390 0.234297 32,850 164 437 1020
2018-07-14 15:05:48 GMT 49.459850 0.224575 32,650 164 447 900
2018-07-14 15:05:38 GMT 49.480511 0.215013 32,400 165 426 960
2018-07-14 15:05:26 GMT 49.503960 0.205958 32,275 162 453 1380
2018-07-14 15:05:16 GMT 49.523003 0.197718 32,150 163 442 1020
2018-07-14 15:05:04 GMT 49.547493 0.185914 31,850 160 453 1560
2018-07-14 15:04:54 GMT 49.567841 0.177101 31,625 164 418 1320
2018-07-14 15:04:44 GMT 49.586384 0.169161 31,400 163 455 1140
2018-07-14 15:04:33 GMT 49.608582 0.158926 31,225 163 454 600
2018-07-14 15:04:22 GMT 49.630772 0.148824 31,000 164 448 1620
2018-07-14 15:04:07 GMT 49.660801 0.136396 30,625 163 442 -1260
2018-07-14 15:03:55 GMT 49.684032 0.125671 30,275 163 436 960
2018-07-14 15:03:45 GMT 49.703423 0.117006 30,025 159 486 1020
2018-07-14 15:03:34 GMT 49.726631 0.103654 29,775 171 441 1080
2018-07-14 15:03:23 GMT 49.748848 0.098345 29,425 162 455 660
2018-07-14 15:03:12 GMT 49.770309 0.089067 29,225 164 433 420
2018-07-14 15:02:58 GMT 49.797352 0.077358 28,975 163 449 1860
2018-07-14 15:02:48 GMT 49.817371 0.069319 28,775 163 462 1560
2018-07-14 15:02:32 GMT 49.850567 0.053138 27,775 163 440 1080
2018-07-14 15:02:21 GMT 49.872768 0.043725 27,975 162 452 1020
2018-07-14 15:02:10 GMT 49.893677 0.033936 27,775 164 479 120
2018-07-14 15:01:56 GMT 49.921955 0.022429 27,500 164 450 1200
2018-07-14 15:01:43 GMT 49.947384 0.012444 27,250 158 456 -5400
2018-07-14 15:01:32 GMT 49.969021 -0.000615 27,000 160 443 1020
2018-07-14 15:01:19 GMT 49.994030 -0.015020 26,825 157 446 1080
2018-07-14 15:01:09 GMT 50.013157 -0.027140 26,575 159 460 1200
2018-07-14 15:00:58 GMT 50.035069 -0.040010 26,275 157 406 1680
2018-07-14 15:00:47 GMT 50.054230 -0.052106 26,050 159 451 360
2018-07-14 15:00:35 GMT 50.077969 -0.066375 25,700 161 427 480
2018-07-14 15:00:25 GMT 50.096729 -0.076147 25,525 157 447 900
2018-07-14 15:00:15 GMT 50.115902 -0.088339 25,325 162 409 3300
2018-07-14 15:00:05 GMT 50.133980 -0.097169 25,150 160 451 -180
2018-07-14 14:59:55 GMT 50.153675 -0.108140 24,825 162 443 840
2018-07-14 14:59:45 GMT 50.173283 -0.117535 24,500 159 434 1140
2018-07-14 14:59:34 GMT 50.193089 -0.130396 24,200 151 404 3000
2018-07-14 14:59:23 GMT 50.211155 -0.146180 23,950 147 432 0
2018-07-14 14:59:11 GMT 50.229847 -0.163564 23,600 147 449 1860
2018-07-14 14:59:01 GMT 50.248737 -0.182622 23,325 146 413 480
2018-07-14 14:58:51 GMT 50.264679 -0.199218 23,100 152 482 1500
2018-07-14 14:58:41 GMT 50.282539 -0.215734 22,825 148 397 3540
2018-07-14 14:58:29 GMT 50.301537 -0.235468 22,525 149 399 0
2018-07-14 14:58:19 GMT 50.317493 -0.250015 22,225 145 409 0
2018-07-14 14:58:08 GMT 50.334408 -0.267273 21,975 147 424 1560
2018-07-14 14:57:56 GMT 50.354694 -0.288276 21,625 150 417 1920
2018-07-14 14:57:44 GMT 50.372562 -0.305341 21,150 148 459 1080
2018-07-14 14:57:34 GMT 50.389015 -0.322276 20,875 148 440 1020
2018-07-14 14:57:23 GMT 50.410248 -0.343548 20,450 146 257 3420
2018-07-14 14:57:12 GMT 50.423351 -0.356769 20,175 148 456 -660
2018-07-14 14:57:01 GMT 50.440861 -0.374726 19,850 146 373 2100
2018-07-14 14:56:51 GMT 50.456532 -0.390439 19,375 149 401 10260
2018-07-14 14:56:40 GMT 50.473145 -0.406367 19,100 152 465 -5880
2018-07-14 14:56:29 GMT 50.494198 -0.423479 18,700 135 329 1860
2018-07-14 14:56:19 GMT 50.505127 -0.440212 18,325 142 415 2040
2018-07-14 14:56:08 GMT 50.522133 -0.458216 17,875 140 367 1380
2018-07-14 14:55:58 GMT 50.536030 -0.475817 17,550 137 373 1500
2018-07-14 14:55:48 GMT 50.548790 -0.494170 17,325 133 371 4080
2018-07-14 14:55:38 GMT 50.562214 -0.515052 16,925 136 368 3360
2018-07-14 14:55:28 GMT 50.574608 -0.533518 16,475 134 399 3480
2018-07-14 14:55:16 GMT 50.589931 -0.557376 15,975 136 376 1800
2018-07-14 14:55:05 GMT 50.603775 -0.578263 15,600 136 372 2340
2018-07-14 14:54:55 GMT 50.618362 -0.599255 15,350 131 297 2460
2018-07-14 14:54:45 GMT 50.628960 -0.616162 14,900 134 351 5880
2018-07-14 14:54:34 GMT 50.641068 -0.636802 14,450 130 397 -1500
2018-07-14 14:54:24 GMT 50.652416 -0.658986 13,950 118 353 2340
2018-07-14 14:54:14 GMT 50.662109 -0.682141 13,500 119 347 3840
2018-07-14 14:54:04 GMT 50.668922 -0.704673 13,125 119 371 2700
2018-07-14 14:53:54 GMT 50.678070 -0.727983 12,650 129 383 2040
2018-07-14 14:53:44 GMT 50.688007 -0.750609 12,225 117 365 0
2018-07-14 14:53:33 GMT 50.696770 -0.775897 12,050 118 371 60
2018-07-14 14:53:23 GMT 50.705105 -0.799652 12,000 121 362 0
2018-07-14 14:53:12 GMT 50.714348 -0.825498 12,000 118 361 0
2018-07-14 14:53:01 GMT 50.722488 -0.850125 12,000 120 370 60
2018-07-14 14:52:51 GMT 50.731312 -0.873375 12,000 122 367 720
2018-07-14 14:52:41 GMT 50.740360 -0.896144 11,925 120 389 960
2018-07-14 14:52:31 GMT 50.749317 -0.920526 11,825 122 339 0
2018-07-14 14:52:21 GMT 50.756485 -0.942405 11,650 122 346 840
2018-07-14 14:52:11 GMT 50.765400 -0.965579 11,500 121 342 1080
2018-07-14 14:52:01 GMT 50.773258 -0.987487 11,325 122 369 1200
2018-07-14 14:51:51 GMT 50.782070 -1.010169 11,175 118 304 1500
2018-07-14 14:51:40 GMT 50.790154 -1.032243 10,900 121 340 1380
2018-07-14 14:51:29 GMT 50.797062 -1.057127 10,600 129 297 1800
2018-07-14 14:51:18 GMT 50.806465 -1.076173 10,325 119 303 1380
2018-07-14 14:51:07 GMT 50.813435 -1.096751 9,900 122 305 1080
2018-07-14 14:50:53 GMT 50.823849 -1.122645 9,350 117 299 1860
2018-07-14 14:50:43 GMT 50.831017 -1.143045 8,950 100 286 960
2018-07-14 14:50:33 GMT 50.833008 -1.163212 8,700 96 322 1020
2018-07-14 14:50:22 GMT 50.833427 -1.187571 8,500 83 318 3480
2018-07-14 14:50:12 GMT 50.831612 -1.208180 8,250 84 309 5520

Making use of Plane Finder data

You are free to use the raw flight data, aircraft information and images provided in this report for your own purposes provided the data is correctly attributed to Plane Finder. We ask that you please credit Plane Finder and link to planefinder.net in close proximity to the content.

Optionally one of the following logos (no smaller then 150x24px) can be used and must link to planefinder.net

Embedding the Plane Finder map

You are welcome to embed the Plane Finder playback map on your website to offer visitors a more interactive experience. We suggest using the following HTML code:

<iframe src="//planefinder.net/data/report/V79509-EC-MEZ-7700-squawk-2018-07-14/map" width="800" height="600" seamless="seamless"></iframe>

Where our data comes from

Plane Finder has a global network of data feeds and antenna radars that receive data broadcast directly from aircraft. The primary technologies used are ADS-B and MLAT. We also show feeds from the FAA and a FLARM glider feed.

Click here to find out more about the Plane Finder network.

How we collect our data